createdAt,value
2022-08-27T00:02:19.433Z,3.50
2022-08-27T00:05:21.274Z,3.38
2022-08-27T00:08:22.872Z,3.22
2022-08-27T00:11:28.084Z,4.10
2022-08-27T00:14:29.706Z,4.38
2022-08-27T00:17:31.406Z,5.03
2022-08-27T00:20:33.745Z,4.68
2022-08-27T00:23:36.173Z,5.07
2022-08-27T00:26:42.646Z,4.88
2022-08-27T00:29:45.749Z,4.88
2022-08-27T00:32:47.819Z,4.80
2022-08-27T00:35:49.925Z,5.03
2022-08-27T00:38:52.792Z,4.75
2022-08-27T00:41:55.911Z,4.70
2022-08-27T00:44:57.761Z,4.68
2022-08-27T00:48:01.229Z,4.70
2022-08-27T00:51:04.153Z,5.00
2022-08-27T00:54:06.529Z,5.30
2022-08-27T00:57:08.698Z,5.30
2022-08-27T01:00:14.315Z,4.93
2022-08-27T01:03:16.133Z,6.10
2022-08-27T01:06:20.681Z,5.63
2022-08-27T01:09:22.475Z,5.85
2022-08-27T01:12:24.119Z,5.53
2022-08-27T01:15:28.125Z,5.57
2022-08-27T01:18:32.952Z,5.22
2022-08-27T01:21:53.585Z,5.53
2022-08-27T01:24:58.944Z,6.70
2022-08-27T01:28:03.504Z,6.50
2022-08-27T01:31:07.490Z,6.75
2022-08-27T01:34:09.209Z,6.93
2022-08-27T01:37:12.423Z,7.25
2022-08-27T01:40:16.290Z,8.15
2022-08-27T01:43:18.598Z,7.00
2022-08-27T01:46:25.229Z,7.70
2022-08-27T01:49:26.865Z,7.03
2022-08-27T01:52:30.324Z,7.13
2022-08-27T01:55:32.229Z,6.28
2022-08-27T01:58:34.208Z,7.00
2022-08-27T02:01:35.859Z,6.72
2022-08-27T02:04:38.290Z,7.30
2022-08-27T02:07:41.022Z,6.40
2022-08-27T02:10:44.549Z,6.95
2022-08-27T02:13:46.114Z,6.32
2022-08-27T02:16:52.497Z,6.68
2022-08-27T02:19:54.817Z,8.27
2022-08-27T02:22:56.683Z,6.60
2022-08-27T02:25:58.328Z,6.57
2022-08-27T02:29:00.067Z,6.65
2022-08-27T02:32:02.047Z,6.13
2022-08-27T02:35:05.016Z,5.97
2022-08-27T02:38:08.345Z,5.68
2022-08-27T02:41:10.087Z,5.53
2022-08-27T02:44:11.685Z,6.05
2022-08-27T02:47:16.734Z,5.38
2022-08-27T02:50:18.393Z,5.50
2022-08-27T02:53:20.205Z,4.90
2022-08-27T02:56:22.054Z,5.22
2022-08-27T02:59:24.997Z,5.13
2022-08-27T03:02:27.572Z,5.38
2022-08-27T03:05:29.363Z,4.90
2022-08-27T03:08:35.915Z,4.65
2022-08-27T03:11:53.724Z,4.18
2022-08-27T03:14:55.327Z,5.53
2022-08-27T03:18:15.285Z,3.97
2022-08-27T03:21:24.234Z,4.13
2022-08-27T03:24:25.868Z,4.30
2022-08-27T03:27:28.006Z,4.43
2022-08-27T03:30:29.625Z,3.78
2022-08-27T03:33:34.102Z,4.25
2022-08-27T03:36:35.922Z,4.10
2022-08-27T03:39:37.576Z,4.40
2022-08-27T03:42:39.811Z,4.40
2022-08-27T03:45:56.626Z,3.80
2022-08-27T03:49:04.327Z,4.45
2022-08-27T03:52:07.530Z,3.95
2022-08-27T03:55:09.700Z,4.18
2022-08-27T03:58:12.316Z,4.15
2022-08-27T04:01:14.064Z,3.92
2022-08-27T04:04:15.906Z,3.38
2022-08-27T04:07:17.488Z,3.50
2022-08-27T04:10:20.179Z,3.38
2022-08-27T04:13:23.304Z,3.60
2022-08-27T04:16:25.924Z,3.53
2022-08-27T04:19:30.333Z,3.30
2022-08-27T04:22:32.232Z,3.33
2022-08-27T04:25:34.025Z,3.20
2022-08-27T04:28:38.583Z,3.40
2022-08-27T04:31:40.772Z,2.97
2022-08-27T04:34:42.443Z,3.10
2022-08-27T04:37:44.096Z,3.13
2022-08-27T04:41:04.411Z,2.80
2022-08-27T04:47:08.938Z,2.90
2022-08-27T04:50:10.639Z,3.33
2022-08-27T04:53:18.004Z,3.20
2022-08-27T04:56:22.290Z,2.75
2022-08-27T04:59:24.049Z,3.00
2022-08-27T05:02:25.742Z,2.85
2022-08-27T05:05:28.702Z,3.10
2022-08-27T05:08:30.638Z,3.65
2022-08-27T05:11:34.550Z,3.35
2022-08-27T05:14:36.277Z,3.15
2022-08-27T05:17:37.855Z,3.42
2022-08-27T05:20:45.772Z,3.13
2022-08-27T05:23:49.147Z,3.10
2022-08-27T05:26:51.336Z,3.03
2022-08-27T05:29:52.909Z,3.00
2022-08-27T05:32:54.525Z,2.80
2022-08-27T05:35:58.188Z,2.50
2022-08-27T05:39:01.418Z,2.67
2022-08-27T05:42:03.040Z,3.10
2022-08-27T05:45:05.191Z,3.20
2022-08-27T05:48:07.009Z,3.08
2022-08-27T05:51:22.548Z,2.75
2022-08-27T05:54:27.554Z,3.58
2022-08-27T05:57:29.258Z,2.92
2022-08-27T06:00:49.200Z,3.40
2022-08-27T06:03:52.767Z,3.55
2022-08-27T06:06:54.794Z,3.40
2022-08-27T06:09:58.829Z,3.58
2022-08-27T06:13:03.541Z,3.20
2022-08-27T06:16:08.334Z,3.05
2022-08-27T06:19:13.979Z,3.22
2022-08-27T06:22:15.605Z,3.30
2022-08-27T06:25:17.213Z,3.03
2022-08-27T06:28:23.487Z,3.22
2022-08-27T06:31:27.471Z,2.97
2022-08-27T06:34:29.479Z,2.40
2022-08-27T06:37:31.046Z,2.95
2022-08-27T06:40:32.791Z,3.08
2022-08-27T06:43:40.093Z,2.78
2022-08-27T06:46:43.443Z,3.20
2022-08-27T06:49:46.430Z,2.50
2022-08-27T06:52:48.175Z,2.63
2022-08-27T06:55:50.286Z,2.60
2022-08-27T06:58:57.347Z,2.70
2022-08-27T07:01:59.328Z,2.78
2022-08-27T07:05:01.073Z,2.70
2022-08-27T07:08:05.773Z,2.70
2022-08-27T07:11:12.094Z,2.55
2022-08-27T07:14:13.774Z,3.00
2022-08-27T07:17:17.374Z,2.72
2022-08-27T07:20:20.112Z,2.50
2022-08-27T07:23:21.785Z,2.90
2022-08-27T07:26:23.860Z,2.78
2022-08-27T07:29:28.301Z,2.78
2022-08-27T07:32:33.466Z,2.80
2022-08-27T07:35:35.131Z,3.15
2022-08-27T07:38:37.275Z,3.03
2022-08-27T07:41:58.822Z,3.03
2022-08-27T07:45:00.589Z,3.40
2022-08-27T07:48:03.087Z,3.28
2022-08-27T07:51:05.449Z,3.38
2022-08-27T07:54:07.086Z,3.13
2022-08-27T07:57:10.159Z,3.58
2022-08-27T08:00:13.101Z,3.13
2022-08-27T08:03:14.681Z,3.50
2022-08-27T08:06:16.855Z,3.92
2022-08-27T08:09:19.647Z,4.20
2022-08-27T08:12:26.411Z,4.45
2022-08-27T08:15:28.528Z,4.40
2022-08-27T08:18:30.143Z,4.80
2022-08-27T08:21:31.966Z,5.05
2022-08-27T08:24:35.474Z,5.20
2022-08-27T08:27:37.087Z,5.18
2022-08-27T08:30:38.786Z,5.55
2022-08-27T08:33:40.495Z,5.15
2022-08-27T08:36:42.087Z,5.25
2022-08-27T08:39:47.839Z,4.95
2022-08-27T08:42:53.058Z,5.13
2022-08-27T08:45:58.232Z,4.93
2022-08-27T08:49:07.767Z,4.00
2022-08-27T08:52:31.361Z,4.07
2022-08-27T08:55:53.940Z,5.03
2022-08-27T08:58:58.645Z,4.47
2022-08-27T09:02:01.327Z,4.80
2022-08-27T09:05:06.111Z,4.57
2022-08-27T09:08:35.398Z,3.55
2022-08-27T09:11:46.519Z,3.70
2022-08-27T09:14:54.933Z,5.60
2022-08-27T09:18:27.961Z,4.40
2022-08-27T09:21:45.169Z,4.10
2022-08-27T09:25:21.131Z,5.03
2022-08-27T09:28:47.555Z,4.20
2022-08-27T09:32:08.488Z,5.00
2022-08-27T09:35:12.763Z,5.25
2022-08-27T09:38:30.001Z,5.05
2022-08-27T09:41:43.581Z,4.85
2022-08-27T09:44:52.888Z,5.20
2022-08-27T09:48:02.616Z,4.80
2022-08-27T09:51:12.494Z,4.35
2022-08-27T09:54:45.469Z,4.75
2022-08-27T09:57:47.102Z,4.63
2022-08-27T10:00:57.982Z,4.78
2022-08-27T10:04:15.040Z,4.35
2022-08-27T10:07:42.059Z,4.65
2022-08-27T10:10:51.815Z,4.38
2022-08-27T10:13:59.040Z,4.17
2022-08-27T10:17:24.834Z,4.68
2022-08-27T10:20:42.281Z,5.10
2022-08-27T10:23:53.477Z,4.45
2022-08-27T10:27:10.321Z,4.70
2022-08-27T10:30:15.850Z,5.43
2022-08-27T10:33:37.712Z,5.43
2022-08-27T10:37:12.049Z,4.90
2022-08-27T10:40:23.548Z,4.82
2022-08-27T10:43:47.051Z,4.78
2022-08-27T10:47:09.825Z,4.07
2022-08-27T10:50:33.366Z,4.30
2022-08-27T10:53:34.843Z,4.20
2022-08-27T10:56:42.824Z,4.20
2022-08-27T10:59:59.399Z,3.60
2022-08-27T11:03:09.709Z,4.18
2022-08-27T11:06:27.480Z,3.97
2022-08-27T11:09:53.745Z,3.70
2022-08-27T11:13:08.398Z,3.88
2022-08-27T11:16:23.113Z,3.75
2022-08-27T11:19:49.727Z,4.00
2022-08-27T11:23:04.415Z,3.78
2022-08-27T11:26:06.863Z,4.32
2022-08-27T11:29:30.601Z,4.15
2022-08-27T11:32:50.005Z,4.75
2022-08-27T11:35:57.603Z,4.57
2022-08-27T11:39:02.321Z,4.10
2022-08-27T11:42:41.223Z,3.95
2022-08-27T11:46:01.514Z,4.47
2022-08-27T11:49:04.160Z,4.30
2022-08-27T11:52:07.630Z,4.28
2022-08-27T11:55:15.291Z,4.53
2022-08-27T11:58:21.244Z,4.28
2022-08-27T12:01:29.848Z,4.55
2022-08-27T12:04:31.575Z,4.25
2022-08-27T12:07:36.224Z,3.78
2022-08-27T12:11:08.816Z,4.32
2022-08-27T12:14:12.318Z,4.45
2022-08-27T12:17:36.273Z,4.20
2022-08-27T12:20:48.474Z,3.47
2022-08-27T12:23:52.771Z,4.40
2022-08-27T12:27:13.685Z,4.20
2022-08-27T12:30:19.297Z,3.95
2022-08-27T12:33:23.963Z,3.97
2022-08-27T12:36:28.595Z,3.78
2022-08-27T12:39:36.486Z,3.70
2022-08-27T12:42:38.113Z,3.63
2022-08-27T12:45:49.227Z,3.95
2022-08-27T12:49:01.266Z,3.50
2022-08-27T12:52:13.982Z,3.75
2022-08-27T12:55:30.719Z,3.45
2022-08-27T12:58:53.225Z,3.58
2022-08-27T13:02:11.850Z,3.78
2022-08-27T13:05:13.748Z,3.65
2022-08-27T13:08:19.852Z,4.38
2022-08-27T13:11:26.463Z,3.88
2022-08-27T13:14:36.050Z,3.80
2022-08-27T13:17:41.387Z,4.00
2022-08-27T13:20:43.894Z,4.13
2022-08-27T13:24:03.724Z,4.65
2022-08-27T13:27:06.415Z,4.95
2022-08-27T13:30:22.896Z,4.95
2022-08-27T13:33:36.345Z,4.45
2022-08-27T13:37:02.588Z,4.22
2022-08-27T13:40:04.840Z,3.17
2022-08-27T13:43:12.309Z,3.40
2022-08-27T13:46:30.112Z,3.40
2022-08-27T13:49:34.621Z,3.70
2022-08-27T13:53:01.868Z,3.17
2022-08-27T13:56:03.515Z,3.00
2022-08-27T13:59:12.333Z,3.33
2022-08-27T14:02:15.883Z,3.17
2022-08-27T14:05:23.690Z,2.92
2022-08-27T14:08:31.146Z,2.90
2022-08-27T14:11:33.153Z,2.60
2022-08-27T14:14:41.355Z,2.80
2022-08-27T14:17:45.984Z,2.90
2022-08-27T14:20:47.585Z,3.53
2022-08-27T14:23:49.692Z,2.83
2022-08-27T14:26:54.015Z,3.20
2022-08-27T14:29:56.050Z,3.00
2022-08-27T14:33:00.415Z,2.70
2022-08-27T14:36:02.613Z,3.10
2022-08-27T14:39:04.711Z,3.00
2022-08-27T14:42:06.740Z,2.92
2022-08-27T14:45:09.252Z,3.17
2022-08-27T14:48:18.692Z,3.17
2022-08-27T14:51:27.337Z,3.03
2022-08-27T14:54:33.342Z,3.15
2022-08-27T14:57:35.849Z,2.88
2022-08-27T15:00:37.879Z,3.22
2022-08-27T15:03:44.663Z,3.03
2022-08-27T15:06:46.278Z,3.35
2022-08-27T15:09:50.077Z,3.15
2022-08-27T15:12:54.361Z,2.97
2022-08-27T15:15:56.015Z,3.58
2022-08-27T15:19:00.602Z,2.70
2022-08-27T15:22:16.926Z,3.45
2022-08-27T15:25:19.641Z,3.15
2022-08-27T15:28:21.351Z,3.00
2022-08-27T15:31:23.266Z,2.78
2022-08-27T15:34:24.868Z,2.75
2022-08-27T15:37:26.636Z,3.00
2022-08-27T15:40:32.082Z,3.53
2022-08-27T15:43:37.120Z,3.10
2022-08-27T15:46:38.909Z,2.80
2022-08-27T15:49:42.050Z,2.75
2022-08-27T15:52:43.924Z,2.60
2022-08-27T15:55:45.720Z,2.97
2022-08-27T15:58:47.324Z,3.08
2022-08-27T16:01:49.765Z,2.80
2022-08-27T16:04:51.470Z,2.78
2022-08-27T16:07:52.991Z,2.60
2022-08-27T16:10:56.767Z,2.40
2022-08-27T16:13:58.609Z,2.50
2022-08-27T16:17:00.504Z,2.40
2022-08-27T16:20:02.164Z,2.40
2022-08-27T16:23:04.430Z,2.25
2022-08-27T16:26:06.010Z,2.25
2022-08-27T16:29:08.115Z,1.83
2022-08-27T16:32:16.424Z,2.33
2022-08-27T16:35:18.905Z,2.38
2022-08-27T16:38:20.573Z,2.88
2022-08-27T16:41:22.953Z,2.30
2022-08-27T16:44:26.711Z,2.00
2022-08-27T16:47:28.240Z,2.78
2022-08-27T16:50:35.887Z,2.20
2022-08-27T16:53:41.085Z,2.63
2022-08-27T16:56:44.263Z,2.58
2022-08-27T16:59:47.964Z,3.10
2022-08-27T17:02:49.563Z,2.40
2022-08-27T17:05:51.723Z,2.42
2022-08-27T17:08:54.328Z,2.65
2022-08-27T17:11:58.349Z,2.83
2022-08-27T17:15:00.869Z,2.60
2022-08-27T17:18:03.865Z,2.40
2022-08-27T17:21:05.857Z,2.38
2022-08-27T17:24:12.484Z,2.53
2022-08-27T17:27:14.577Z,2.55
2022-08-27T17:30:16.244Z,2.60
2022-08-27T17:33:26.065Z,2.60
2022-08-27T17:36:30.275Z,2.33
2022-08-27T17:39:31.824Z,2.50
2022-08-27T17:42:33.500Z,2.63
2022-08-27T17:45:35.066Z,2.40
2022-08-27T17:48:36.656Z,2.60
2022-08-27T17:51:38.369Z,2.58
2022-08-27T17:54:43.428Z,2.70
2022-08-27T17:57:46.280Z,2.35
2022-08-27T18:00:48.093Z,2.63
2022-08-27T18:03:49.782Z,3.10
2022-08-27T18:06:51.400Z,2.30
2022-08-27T18:09:53.155Z,3.03
2022-08-27T18:12:55.948Z,2.53
2022-08-27T18:15:57.561Z,2.53
2022-08-27T18:18:59.147Z,2.75
2022-08-27T18:22:00.708Z,3.15
2022-08-27T18:25:02.314Z,2.67
2022-08-27T18:28:06.727Z,2.80
2022-08-27T18:31:09.832Z,2.47
2022-08-27T18:34:11.525Z,2.45
2022-08-27T18:37:13.091Z,2.80
2022-08-27T18:40:16.711Z,2.17
2022-08-27T18:43:20.579Z,2.85
2022-08-27T18:46:22.279Z,2.60
2022-08-27T18:49:25.767Z,2.78
2022-08-27T18:52:27.367Z,2.40
2022-08-27T18:55:28.927Z,3.05
2022-08-27T18:58:30.525Z,2.92
2022-08-27T19:01:32.408Z,2.58
2022-08-27T19:04:34.301Z,2.50
2022-08-27T19:07:36.076Z,2.58
2022-08-27T19:10:37.768Z,2.90
2022-08-27T19:13:40.312Z,2.40
2022-08-27T19:16:45.262Z,2.65
2022-08-27T19:19:49.783Z,2.78
2022-08-27T19:22:51.338Z,2.42
2022-08-27T19:25:53.574Z,2.50
2022-08-27T19:28:55.097Z,2.45
2022-08-27T19:31:56.671Z,2.22
2022-08-27T19:34:58.263Z,1.88
2022-08-27T19:38:00.079Z,1.90
2022-08-27T19:41:03.361Z,2.10
2022-08-27T19:44:04.968Z,2.35
2022-08-27T19:47:08.972Z,2.20
2022-08-27T19:50:13.284Z,1.77
2022-08-27T19:53:15.241Z,2.10
2022-08-27T19:56:17.333Z,2.13
2022-08-27T19:59:21.696Z,1.92
2022-08-27T20:02:23.766Z,2.75
2022-08-27T20:05:25.410Z,2.05
2022-08-27T20:08:27.259Z,1.83
2022-08-27T20:11:28.767Z,1.90
2022-08-27T20:14:30.275Z,2.00
2022-08-27T20:17:32.664Z,2.40
2022-08-27T20:20:34.951Z,2.08
2022-08-27T20:23:36.501Z,2.08
2022-08-27T20:26:38.406Z,2.10
2022-08-27T20:29:41.536Z,2.33
2022-08-27T20:32:43.559Z,1.80
2022-08-27T20:35:45.131Z,2.17
2022-08-27T20:38:46.873Z,2.10
2022-08-27T20:41:48.478Z,2.45
2022-08-27T20:44:50.486Z,2.65
2022-08-27T20:47:53.837Z,2.67
2022-08-27T20:50:55.822Z,2.63
2022-08-27T20:53:57.361Z,2.55
2022-08-27T20:56:59.050Z,2.50
2022-08-27T21:00:19.092Z,2.60
2022-08-27T21:03:22.037Z,2.50
2022-08-27T21:06:26.452Z,2.33
2022-08-27T21:09:28.233Z,2.50
2022-08-27T21:12:30.912Z,2.70
2022-08-27T21:15:32.539Z,2.55
2022-08-27T21:18:34.128Z,2.58
2022-08-27T21:21:35.657Z,2.80
2022-08-27T21:24:37.214Z,2.67
2022-08-27T21:27:39.485Z,1.95
2022-08-27T21:30:41.086Z,2.90
2022-08-27T21:33:42.614Z,2.13
2022-08-27T21:36:44.216Z,2.67
2022-08-27T21:39:45.838Z,2.63
2022-08-27T21:42:48.316Z,2.20
2022-08-27T21:45:54.475Z,2.28
2022-08-27T21:48:59.046Z,2.28
2022-08-27T21:52:04.688Z,2.45
2022-08-27T21:55:07.597Z,2.78
2022-08-27T21:58:09.164Z,2.60
2022-08-27T22:01:10.822Z,2.60
2022-08-27T22:04:13.246Z,2.22
2022-08-27T22:07:14.779Z,2.90
2022-08-27T22:10:16.408Z,2.90
2022-08-27T22:13:18.921Z,2.30
2022-08-27T22:16:20.617Z,2.50
2022-08-27T22:19:22.364Z,2.60
2022-08-27T22:22:23.904Z,2.60
2022-08-27T22:25:32.332Z,2.50
2022-08-27T22:28:33.897Z,2.33
2022-08-27T22:31:35.764Z,2.67
2022-08-27T22:34:37.458Z,2.42
2022-08-27T22:37:39.044Z,2.50
2022-08-27T22:40:41.153Z,2.90
2022-08-27T22:43:43.006Z,2.70
2022-08-27T22:46:44.524Z,3.22
2022-08-27T22:49:46.221Z,2.80
2022-08-27T22:52:48.564Z,3.10
2022-08-27T22:55:50.508Z,3.00
2022-08-27T22:58:52.050Z,2.53
2022-08-27T23:01:56.938Z,3.05
2022-08-27T23:04:58.554Z,3.10
2022-08-27T23:08:01.297Z,3.70
2022-08-27T23:11:03.815Z,3.40
2022-08-27T23:14:05.316Z,3.00
2022-08-27T23:17:06.814Z,3.20
2022-08-27T23:20:09.870Z,3.35
2022-08-27T23:23:11.523Z,3.25
2022-08-27T23:26:32.080Z,3.30
2022-08-27T23:29:33.716Z,3.40
2022-08-27T23:32:35.692Z,3.53
2022-08-27T23:35:37.373Z,3.25
2022-08-27T23:38:39.145Z,3.72
2022-08-27T23:41:43.896Z,3.13
2022-08-27T23:44:46.799Z,2.78
2022-08-27T23:47:48.681Z,3.05
2022-08-27T23:50:50.461Z,3.60
2022-08-27T23:53:52.000Z,4.00
2022-08-27T23:56:53.520Z,3.65
2022-08-27T23:59:55.011Z,4.03
